sensor_id;sensor_type;location;lat;lon;timestamp;P1;durP1;ratioP1;P2;durP2;ratioP2
17228;SDS011;8731;50.364;8.958;2022-08-11T00:01:47;5.27;;;2.50;;
17228;SDS011;8731;50.364;8.958;2022-08-11T00:06:13;5.93;;;2.90;;
17228;SDS011;8731;50.364;8.958;2022-08-11T00:10:50;3.50;;;2.50;;
17228;SDS011;8731;50.364;8.958;2022-08-11T00:15:18;2.93;;;2.30;;
17228;SDS011;8731;50.364;8.958;2022-08-11T00:19:42;3.07;;;2.37;;
17228;SDS011;8731;50.364;8.958;2022-08-11T00:24:08;6.00;;;2.53;;
17228;SDS011;8731;50.364;8.958;2022-08-11T00:28:33;12.30;;;2.73;;
17228;SDS011;8731;50.364;8.958;2022-08-11T00:32:56;3.70;;;2.40;;
17228;SDS011;8731;50.364;8.958;2022-08-11T00:37:20;3.87;;;2.43;;
17228;SDS011;8731;50.364;8.958;2022-08-11T00:41:44;4.87;;;2.60;;
17228;SDS011;8731;50.364;8.958;2022-08-11T00:46:29;3.60;;;2.63;;
17228;SDS011;8731;50.364;8.958;2022-08-11T00:51:09;5.67;;;2.67;;
17228;SDS011;8731;50.364;8.958;2022-08-11T01:01:07;3.17;;;2.60;;
17228;SDS011;8731;50.364;8.958;2022-08-11T01:05:41;3.00;;;2.43;;
17228;SDS011;8731;50.364;8.958;2022-08-11T01:16:06;3.73;;;2.50;;
17228;SDS011;8731;50.364;8.958;2022-08-11T01:36:29;3.60;;;2.80;;
17228;SDS011;8731;50.364;8.958;2022-08-11T01:41:26;3.70;;;2.53;;
17228;SDS011;8731;50.364;8.958;2022-08-11T01:46:38;5.97;;;2.67;;
17228;SDS011;8731;50.364;8.958;2022-08-11T01:51:11;5.17;;;2.70;;
17228;SDS011;8731;50.364;8.958;2022-08-11T01:55:46;6.37;;;2.83;;
17228;SDS011;8731;50.364;8.958;2022-08-11T02:00:20;5.20;;;2.90;;
17228;SDS011;8731;50.364;8.958;2022-08-11T02:04:55;3.13;;;2.30;;
17228;SDS011;8731;50.364;8.958;2022-08-11T02:09:37;3.43;;;2.53;;
17228;SDS011;8731;50.364;8.958;2022-08-11T02:14:52;2.60;;;2.40;;
17228;SDS011;8731;50.364;8.958;2022-08-11T02:19:31;7.37;;;2.80;;
17228;SDS011;8731;50.364;8.958;2022-08-11T02:24:27;5.17;;;2.70;;
17228;SDS011;8731;50.364;8.958;2022-08-11T02:29:00;5.93;;;2.73;;
17228;SDS011;8731;50.364;8.958;2022-08-11T02:33:37;5.30;;;2.60;;
17228;SDS011;8731;50.364;8.958;2022-08-11T02:38:05;3.00;;;2.50;;
17228;SDS011;8731;50.364;8.958;2022-08-11T02:42:39;7.60;;;2.73;;
17228;SDS011;8731;50.364;8.958;2022-08-11T02:47:23;3.60;;;2.60;;
17228;SDS011;8731;50.364;8.958;2022-08-11T02:52:04;3.63;;;2.83;;
17228;SDS011;8731;50.364;8.958;2022-08-11T02:56:44;5.17;;;2.97;;
17228;SDS011;8731;50.364;8.958;2022-08-11T03:01:18;6.20;;;2.93;;
17228;SDS011;8731;50.364;8.958;2022-08-11T03:05:53;4.93;;;2.80;;
17228;SDS011;8731;50.364;8.958;2022-08-11T03:10:31;3.67;;;2.70;;
17228;SDS011;8731;50.364;8.958;2022-08-11T03:15:06;7.63;;;3.00;;
17228;SDS011;8731;50.364;8.958;2022-08-11T03:20:12;4.13;;;2.80;;
17228;SDS011;8731;50.364;8.958;2022-08-11T03:24:56;5.50;;;2.90;;
17228;SDS011;8731;50.364;8.958;2022-08-11T03:29:27;3.87;;;2.73;;
17228;SDS011;8731;50.364;8.958;2022-08-11T03:33:57;4.57;;;3.30;;
17228;SDS011;8731;50.364;8.958;2022-08-11T03:38:24;3.53;;;2.83;;
17228;SDS011;8731;50.364;8.958;2022-08-11T03:43:06;3.33;;;2.90;;
17228;SDS011;8731;50.364;8.958;2022-08-11T03:47:48;3.40;;;2.90;;
17228;SDS011;8731;50.364;8.958;2022-08-11T03:52:31;5.90;;;3.10;;
17228;SDS011;8731;50.364;8.958;2022-08-11T04:02:38;4.00;;;3.10;;
17228;SDS011;8731;50.364;8.958;2022-08-11T04:07:43;4.77;;;3.60;;
17228;SDS011;8731;50.364;8.958;2022-08-11T04:12:58;7.80;;;3.57;;
17228;SDS011;8731;50.364;8.958;2022-08-11T04:23:23;3.73;;;2.90;;
17228;SDS011;8731;50.364;8.958;2022-08-11T04:33:30;4.80;;;3.00;;
17228;SDS011;8731;50.364;8.958;2022-08-11T04:38:11;7.37;;;3.27;;
17228;SDS011;8731;50.364;8.958;2022-08-11T04:43:35;4.23;;;3.30;;
17228;SDS011;8731;50.364;8.958;2022-08-11T04:48:53;4.10;;;2.90;;
17228;SDS011;8731;50.364;8.958;2022-08-11T04:53:58;6.67;;;3.30;;
17228;SDS011;8731;50.364;8.958;2022-08-11T04:59:05;5.30;;;3.00;;
17228;SDS011;8731;50.364;8.958;2022-08-11T05:09:45;5.03;;;2.87;;
17228;SDS011;8731;50.364;8.958;2022-08-11T05:14:32;5.00;;;2.80;;
17228;SDS011;8731;50.364;8.958;2022-08-11T05:19:22;4.57;;;2.90;;
17228;SDS011;8731;50.364;8.958;2022-08-11T05:24:05;5.83;;;2.70;;
17228;SDS011;8731;50.364;8.958;2022-08-11T05:28:55;5.77;;;3.17;;
17228;SDS011;8731;50.364;8.958;2022-08-11T05:33:41;7.30;;;2.80;;
17228;SDS011;8731;50.364;8.958;2022-08-11T05:38:27;5.37;;;2.83;;
17228;SDS011;8731;50.364;8.958;2022-08-11T05:43:13;8.27;;;3.13;;
17228;SDS011;8731;50.364;8.958;2022-08-11T05:47:54;4.43;;;3.00;;
17228;SDS011;8731;50.364;8.958;2022-08-11T05:52:35;3.20;;;2.90;;
17228;SDS011;8731;50.364;8.958;2022-08-11T05:57:19;4.10;;;2.97;;
17228;SDS011;8731;50.364;8.958;2022-08-11T06:01:47;5.53;;;2.90;;
17228;SDS011;8731;50.364;8.958;2022-08-11T06:06:11;8.40;;;3.00;;
17228;SDS011;8731;50.364;8.958;2022-08-11T06:10:34;7.53;;;2.97;;
17228;SDS011;8731;50.364;8.958;2022-08-11T06:15:00;6.30;;;2.77;;
17228;SDS011;8731;50.364;8.958;2022-08-11T06:19:33;5.57;;;2.77;;
17228;SDS011;8731;50.364;8.958;2022-08-11T06:23:59;3.80;;;2.63;;
17228;SDS011;8731;50.364;8.958;2022-08-11T06:28:30;3.97;;;3.00;;
17228;SDS011;8731;50.364;8.958;2022-08-11T06:32:56;6.07;;;2.50;;
17228;SDS011;8731;50.364;8.958;2022-08-11T06:37:24;5.47;;;2.73;;
17228;SDS011;8731;50.364;8.958;2022-08-11T06:42:02;4.10;;;2.77;;
17228;SDS011;8731;50.364;8.958;2022-08-11T06:46:36;5.93;;;2.63;;
17228;SDS011;8731;50.364;8.958;2022-08-11T06:51:02;4.17;;;2.63;;
17228;SDS011;8731;50.364;8.958;2022-08-11T06:55:37;5.97;;;2.40;;
17228;SDS011;8731;50.364;8.958;2022-08-11T07:00:21;4.00;;;2.40;;
17228;SDS011;8731;50.364;8.958;2022-08-11T07:04:50;5.60;;;2.50;;
17228;SDS011;8731;50.364;8.958;2022-08-11T07:09:27;6.93;;;2.33;;
17228;SDS011;8731;50.364;8.958;2022-08-11T07:14:49;3.42;;;2.50;;
17228;SDS011;8731;50.364;8.958;2022-08-11T07:19:32;5.70;;;2.40;;
17228;SDS011;8731;50.364;8.958;2022-08-11T07:24:16;4.97;;;2.25;;
17228;SDS011;8731;50.364;8.958;2022-08-11T07:29:02;4.68;;;2.40;;
17228;SDS011;8731;50.364;8.958;2022-08-11T07:33:30;4.38;;;2.30;;
17228;SDS011;8731;50.364;8.958;2022-08-11T07:38:10;5.03;;;2.80;;
17228;SDS011;8731;50.364;8.958;2022-08-11T07:42:41;4.97;;;2.50;;
17228;SDS011;8731;50.364;8.958;2022-08-11T07:47:05;2.38;;;1.98;;
17228;SDS011;8731;50.364;8.958;2022-08-11T07:51:49;2.88;;;2.03;;
17228;SDS011;8731;50.364;8.958;2022-08-11T07:56:31;4.88;;;2.08;;
17228;SDS011;8731;50.364;8.958;2022-08-11T08:00:55;4.07;;;1.85;;
17228;SDS011;8731;50.364;8.958;2022-08-11T08:05:36;2.78;;;1.92;;
17228;SDS011;8731;50.364;8.958;2022-08-11T08:10:18;4.47;;;1.80;;
17228;SDS011;8731;50.364;8.958;2022-08-11T08:14:58;8.75;;;1.85;;
17228;SDS011;8731;50.364;8.958;2022-08-11T08:19:45;2.83;;;1.63;;
17228;SDS011;8731;50.364;8.958;2022-08-11T08:24:09;2.97;;;1.95;;
17228;SDS011;8731;50.364;8.958;2022-08-11T08:28:34;3.42;;;1.65;;
17228;SDS011;8731;50.364;8.958;2022-08-11T08:32:57;5.88;;;1.77;;
17228;SDS011;8731;50.364;8.958;2022-08-11T08:37:21;4.75;;;1.75;;
17228;SDS011;8731;50.364;8.958;2022-08-11T08:41:45;3.65;;;1.70;;
17228;SDS011;8731;50.364;8.958;2022-08-11T08:46:16;3.20;;;1.48;;
17228;SDS011;8731;50.364;8.958;2022-08-11T08:50:51;4.00;;;1.63;;
17228;SDS011;8731;50.364;8.958;2022-08-11T08:55:38;3.42;;;1.60;;
17228;SDS011;8731;50.364;8.958;2022-08-11T09:00:02;2.30;;;1.60;;
17228;SDS011;8731;50.364;8.958;2022-08-11T09:04:28;1.95;;;1.58;;
17228;SDS011;8731;50.364;8.958;2022-08-11T09:08:52;5.35;;;1.80;;
17228;SDS011;8731;50.364;8.958;2022-08-11T09:13:15;1.70;;;1.55;;
17228;SDS011;8731;50.364;8.958;2022-08-11T09:17:38;2.55;;;1.80;;
17228;SDS011;8731;50.364;8.958;2022-08-11T09:22:05;2.80;;;1.95;;
17228;SDS011;8731;50.364;8.958;2022-08-11T09:26:46;3.55;;;1.50;;
17228;SDS011;8731;50.364;8.958;2022-08-11T09:31:19;2.75;;;1.83;;
17228;SDS011;8731;50.364;8.958;2022-08-11T09:35:43;2.30;;;1.80;;
17228;SDS011;8731;50.364;8.958;2022-08-11T09:40:11;2.35;;;1.77;;
17228;SDS011;8731;50.364;8.958;2022-08-11T09:44:50;7.13;;;2.05;;
17228;SDS011;8731;50.364;8.958;2022-08-11T09:49:13;4.22;;;1.77;;
17228;SDS011;8731;50.364;8.958;2022-08-11T09:53:42;2.53;;;1.80;;
17228;SDS011;8731;50.364;8.958;2022-08-11T09:58:07;2.72;;;1.85;;
17228;SDS011;8731;50.364;8.958;2022-08-11T10:02:39;6.30;;;1.90;;
17228;SDS011;8731;50.364;8.958;2022-08-11T10:07:05;3.75;;;1.73;;
17228;SDS011;8731;50.364;8.958;2022-08-11T10:11:29;4.97;;;1.73;;
17228;SDS011;8731;50.364;8.958;2022-08-11T10:15:55;3.22;;;1.60;;
17228;SDS011;8731;50.364;8.958;2022-08-11T10:20:22;1.95;;;1.73;;
17228;SDS011;8731;50.364;8.958;2022-08-11T10:24:44;1.92;;;1.70;;
17228;SDS011;8731;50.364;8.958;2022-08-11T10:29:25;4.18;;;1.90;;
17228;SDS011;8731;50.364;8.958;2022-08-11T10:34:18;2.53;;;1.60;;
17228;SDS011;8731;50.364;8.958;2022-08-11T10:38:43;2.45;;;1.65;;
17228;SDS011;8731;50.364;8.958;2022-08-11T10:43:09;3.88;;;1.83;;
17228;SDS011;8731;50.364;8.958;2022-08-11T10:47:34;4.53;;;1.95;;
17228;SDS011;8731;50.364;8.958;2022-08-11T10:51:59;3.55;;;1.60;;
17228;SDS011;8731;50.364;8.958;2022-08-11T10:56:40;3.40;;;1.63;;
17228;SDS011;8731;50.364;8.958;2022-08-11T11:01:21;5.47;;;1.80;;
17228;SDS011;8731;50.364;8.958;2022-08-11T11:10:29;5.85;;;2.13;;
17228;SDS011;8731;50.364;8.958;2022-08-11T11:14:53;2.45;;;1.88;;
17228;SDS011;8731;50.364;8.958;2022-08-11T11:19:34;7.35;;;2.00;;
17228;SDS011;8731;50.364;8.958;2022-08-11T11:24:03;3.00;;;2.00;;
17228;SDS011;8731;50.364;8.958;2022-08-11T11:34:00;3.28;;;1.80;;
17228;SDS011;8731;50.364;8.958;2022-08-11T11:38:42;3.75;;;2.03;;
17228;SDS011;8731;50.364;8.958;2022-08-11T11:43:05;3.33;;;1.67;;
17228;SDS011;8731;50.364;8.958;2022-08-11T11:47:29;3.50;;;1.88;;
17228;SDS011;8731;50.364;8.958;2022-08-11T11:51:55;3.50;;;1.80;;
17228;SDS011;8731;50.364;8.958;2022-08-11T11:56:20;3.63;;;1.70;;
17228;SDS011;8731;50.364;8.958;2022-08-11T12:00:45;2.85;;;2.00;;
17228;SDS011;8731;50.364;8.958;2022-08-11T12:05:28;2.22;;;1.77;;
17228;SDS011;8731;50.364;8.958;2022-08-11T12:09:54;3.88;;;2.28;;
17228;SDS011;8731;50.364;8.958;2022-08-11T12:14:19;4.60;;;1.80;;
17228;SDS011;8731;50.364;8.958;2022-08-11T12:18:45;3.33;;;1.90;;
17228;SDS011;8731;50.364;8.958;2022-08-11T12:23:12;3.05;;;1.60;;
17228;SDS011;8731;50.364;8.958;2022-08-11T12:27:55;1.88;;;1.70;;
17228;SDS011;8731;50.364;8.958;2022-08-11T12:32:18;2.67;;;1.80;;
17228;SDS011;8731;50.364;8.958;2022-08-11T12:36:45;2.67;;;2.05;;
17228;SDS011;8731;50.364;8.958;2022-08-11T12:41:16;4.18;;;1.95;;
17228;SDS011;8731;50.364;8.958;2022-08-11T12:45:57;5.68;;;1.80;;
17228;SDS011;8731;50.364;8.958;2022-08-11T12:50:24;6.38;;;1.90;;
17228;SDS011;8731;50.364;8.958;2022-08-11T12:55:06;3.80;;;1.90;;
17228;SDS011;8731;50.364;8.958;2022-08-11T12:59:34;4.13;;;1.80;;
17228;SDS011;8731;50.364;8.958;2022-08-11T13:04:16;2.80;;;1.75;;
17228;SDS011;8731;50.364;8.958;2022-08-11T13:08:56;1.73;;;1.60;;
17228;SDS011;8731;50.364;8.958;2022-08-11T13:13:20;3.97;;;1.90;;
17228;SDS011;8731;50.364;8.958;2022-08-11T13:17:45;4.80;;;2.25;;
17228;SDS011;8731;50.364;8.958;2022-08-11T13:22:10;3.58;;;1.83;;
17228;SDS011;8731;50.364;8.958;2022-08-11T13:26:36;13.18;;;2.30;;
17228;SDS011;8731;50.364;8.958;2022-08-11T13:30:59;2.95;;;2.00;;
17228;SDS011;8731;50.364;8.958;2022-08-11T13:35:35;4.70;;;2.08;;
17228;SDS011;8731;50.364;8.958;2022-08-11T13:39:58;4.90;;;2.38;;
17228;SDS011;8731;50.364;8.958;2022-08-11T13:44:21;4.03;;;2.00;;
17228;SDS011;8731;50.364;8.958;2022-08-11T13:48:47;6.88;;;2.45;;
17228;SDS011;8731;50.364;8.958;2022-08-11T13:53:14;3.83;;;2.03;;
17228;SDS011;8731;50.364;8.958;2022-08-11T13:57:40;5.65;;;2.17;;
17228;SDS011;8731;50.364;8.958;2022-08-11T14:02:03;6.57;;;2.42;;
17228;SDS011;8731;50.364;8.958;2022-08-11T14:06:33;3.57;;;2.13;;
17228;SDS011;8731;50.364;8.958;2022-08-11T14:11:00;3.33;;;2.13;;
17228;SDS011;8731;50.364;8.958;2022-08-11T14:15:40;4.35;;;1.77;;
17228;SDS011;8731;50.364;8.958;2022-08-11T14:20:07;5.10;;;2.05;;
17228;SDS011;8731;50.364;8.958;2022-08-11T14:24:33;6.38;;;2.05;;
17228;SDS011;8731;50.364;8.958;2022-08-11T14:29:01;7.72;;;2.10;;
17228;SDS011;8731;50.364;8.958;2022-08-11T14:33:29;3.53;;;2.13;;
17228;SDS011;8731;50.364;8.958;2022-08-11T14:37:54;4.78;;;2.10;;
17228;SDS011;8731;50.364;8.958;2022-08-11T14:42:19;2.85;;;2.17;;
17228;SDS011;8731;50.364;8.958;2022-08-11T14:47:02;2.90;;;2.17;;
17228;SDS011;8731;50.364;8.958;2022-08-11T14:51:26;1.83;;;1.65;;
17228;SDS011;8731;50.364;8.958;2022-08-11T14:55:49;2.72;;;2.05;;
17228;SDS011;8731;50.364;8.958;2022-08-11T15:00:33;5.57;;;2.13;;
17228;SDS011;8731;50.364;8.958;2022-08-11T15:04:57;4.18;;;2.10;;
17228;SDS011;8731;50.364;8.958;2022-08-11T15:09:23;4.67;;;2.37;;
17228;SDS011;8731;50.364;8.958;2022-08-11T15:13:46;5.03;;;1.90;;
17228;SDS011;8731;50.364;8.958;2022-08-11T15:18:09;3.97;;;2.13;;
17228;SDS011;8731;50.364;8.958;2022-08-11T15:22:36;2.57;;;2.03;;
17228;SDS011;8731;50.364;8.958;2022-08-11T15:27:18;3.50;;;2.00;;
17228;SDS011;8731;50.364;8.958;2022-08-11T15:32:01;4.20;;;2.27;;
17228;SDS011;8731;50.364;8.958;2022-08-11T15:36:42;5.40;;;2.07;;
17228;SDS011;8731;50.364;8.958;2022-08-11T15:41:28;4.83;;;2.00;;
17228;SDS011;8731;50.364;8.958;2022-08-11T15:46:19;3.47;;;2.30;;
17228;SDS011;8731;50.364;8.958;2022-08-11T15:50:51;4.90;;;2.07;;
17228;SDS011;8731;50.364;8.958;2022-08-11T15:55:18;4.97;;;2.13;;
17228;SDS011;8731;50.364;8.958;2022-08-11T15:59:44;2.57;;;2.07;;
17228;SDS011;8731;50.364;8.958;2022-08-11T16:04:31;4.53;;;2.30;;
17228;SDS011;8731;50.364;8.958;2022-08-11T16:08:57;4.13;;;2.10;;
17228;SDS011;8731;50.364;8.958;2022-08-11T16:13:25;4.40;;;2.00;;
17228;SDS011;8731;50.364;8.958;2022-08-11T16:18:24;3.47;;;1.83;;
17228;SDS011;8731;50.364;8.958;2022-08-11T16:23:01;5.13;;;2.07;;
17228;SDS011;8731;50.364;8.958;2022-08-11T16:27:29;4.53;;;2.17;;
17228;SDS011;8731;50.364;8.958;2022-08-11T16:31:56;2.77;;;2.10;;
17228;SDS011;8731;50.364;8.958;2022-08-11T16:36:40;4.50;;;2.23;;
17228;SDS011;8731;50.364;8.958;2022-08-11T16:41:24;2.73;;;2.10;;
17228;SDS011;8731;50.364;8.958;2022-08-11T16:46:08;7.13;;;2.30;;
17228;SDS011;8731;50.364;8.958;2022-08-11T16:50:53;4.80;;;1.87;;
17228;SDS011;8731;50.364;8.958;2022-08-11T16:55:20;4.93;;;1.70;;
17228;SDS011;8731;50.364;8.958;2022-08-11T16:59:44;2.30;;;1.83;;
17228;SDS011;8731;50.364;8.958;2022-08-11T17:04:18;3.77;;;1.90;;
17228;SDS011;8731;50.364;8.958;2022-08-11T17:09:07;2.57;;;1.70;;
17228;SDS011;8731;50.364;8.958;2022-08-11T17:13:54;5.57;;;2.20;;
17228;SDS011;8731;50.364;8.958;2022-08-11T17:18:21;3.47;;;1.90;;
17228;SDS011;8731;50.364;8.958;2022-08-11T17:23:00;2.67;;;1.87;;
17228;SDS011;8731;50.364;8.958;2022-08-11T17:27:44;3.03;;;1.73;;
17228;SDS011;8731;50.364;8.958;2022-08-11T17:32:12;4.57;;;1.90;;
17228;SDS011;8731;50.364;8.958;2022-08-11T17:36:57;4.40;;;2.00;;
17228;SDS011;8731;50.364;8.958;2022-08-11T17:41:21;6.53;;;2.30;;
17228;SDS011;8731;50.364;8.958;2022-08-11T17:46:01;2.80;;;2.33;;
17228;SDS011;8731;50.364;8.958;2022-08-11T17:50:55;4.93;;;2.20;;
17228;SDS011;8731;50.364;8.958;2022-08-11T17:55:21;11.03;;;2.30;;
17228;SDS011;8731;50.364;8.958;2022-08-11T18:00:02;4.37;;;2.37;;
17228;SDS011;8731;50.364;8.958;2022-08-11T18:04:32;6.50;;;2.20;;
17228;SDS011;8731;50.364;8.958;2022-08-11T18:08:56;5.73;;;2.40;;
17228;SDS011;8731;50.364;8.958;2022-08-11T18:13:40;4.30;;;2.03;;
17228;SDS011;8731;50.364;8.958;2022-08-11T18:18:22;5.47;;;2.17;;
17228;SDS011;8731;50.364;8.958;2022-08-11T18:23:04;2.63;;;2.10;;
17228;SDS011;8731;50.364;8.958;2022-08-11T18:27:52;3.40;;;2.17;;
17228;SDS011;8731;50.364;8.958;2022-08-11T18:32:35;4.73;;;2.40;;
17228;SDS011;8731;50.364;8.958;2022-08-11T18:37:18;2.67;;;1.90;;
17228;SDS011;8731;50.364;8.958;2022-08-11T18:42:05;8.87;;;2.27;;
17228;SDS011;8731;50.364;8.958;2022-08-11T18:46:52;7.87;;;2.27;;
17228;SDS011;8731;50.364;8.958;2022-08-11T18:51:34;5.90;;;2.30;;
17228;SDS011;8731;50.364;8.958;2022-08-11T18:56:17;5.40;;;2.53;;
17228;SDS011;8731;50.364;8.958;2022-08-11T19:00:59;6.23;;;2.40;;
17228;SDS011;8731;50.364;8.958;2022-08-11T19:05:43;5.00;;;2.30;;
17228;SDS011;8731;50.364;8.958;2022-08-11T19:10:25;3.07;;;2.10;;
17228;SDS011;8731;50.364;8.958;2022-08-11T19:15:05;7.23;;;2.10;;
17228;SDS011;8731;50.364;8.958;2022-08-11T19:19:47;5.03;;;1.70;;
17228;SDS011;8731;50.364;8.958;2022-08-11T19:24:31;5.80;;;2.47;;
17228;SDS011;8731;50.364;8.958;2022-08-11T19:29:13;6.80;;;1.90;;
17228;SDS011;8731;50.364;8.958;2022-08-11T19:33:57;6.37;;;1.97;;
17228;SDS011;8731;50.364;8.958;2022-08-11T19:38:38;3.43;;;1.70;;
17228;SDS011;8731;50.364;8.958;2022-08-11T19:43:21;6.20;;;1.87;;
17228;SDS011;8731;50.364;8.958;2022-08-11T19:48:03;7.80;;;1.97;;
17228;SDS011;8731;50.364;8.958;2022-08-11T19:52:44;4.50;;;2.03;;
17228;SDS011;8731;50.364;8.958;2022-08-11T19:57:25;4.00;;;2.07;;
17228;SDS011;8731;50.364;8.958;2022-08-11T20:02:08;4.13;;;1.80;;
17228;SDS011;8731;50.364;8.958;2022-08-11T20:06:48;4.53;;;1.90;;
17228;SDS011;8731;50.364;8.958;2022-08-11T20:11:32;2.37;;;2.00;;
17228;SDS011;8731;50.364;8.958;2022-08-11T20:16:17;4.57;;;1.90;;
17228;SDS011;8731;50.364;8.958;2022-08-11T20:21:01;6.30;;;1.87;;
17228;SDS011;8731;50.364;8.958;2022-08-11T20:25:42;6.70;;;2.10;;
17228;SDS011;8731;50.364;8.958;2022-08-11T20:30:24;7.00;;;2.10;;
17228;SDS011;8731;50.364;8.958;2022-08-11T20:35:06;6.97;;;2.00;;
17228;SDS011;8731;50.364;8.958;2022-08-11T20:39:49;5.40;;;2.00;;
17228;SDS011;8731;50.364;8.958;2022-08-11T20:44:32;7.07;;;1.90;;
17228;SDS011;8731;50.364;8.958;2022-08-11T20:49:14;2.97;;;1.83;;
17228;SDS011;8731;50.364;8.958;2022-08-11T20:53:57;4.30;;;1.80;;
17228;SDS011;8731;50.364;8.958;2022-08-11T20:58:41;4.50;;;1.73;;
17228;SDS011;8731;50.364;8.958;2022-08-11T21:03:22;5.80;;;2.07;;
17228;SDS011;8731;50.364;8.958;2022-08-11T21:08:02;6.03;;;1.90;;
17228;SDS011;8731;50.364;8.958;2022-08-11T21:12:45;3.40;;;1.60;;
17228;SDS011;8731;50.364;8.958;2022-08-11T21:17:27;2.37;;;2.17;;
17228;SDS011;8731;50.364;8.958;2022-08-11T21:22:13;5.20;;;2.10;;
17228;SDS011;8731;50.364;8.958;2022-08-11T21:26:59;5.13;;;2.00;;
17228;SDS011;8731;50.364;8.958;2022-08-11T21:31:42;4.10;;;1.97;;
17228;SDS011;8731;50.364;8.958;2022-08-11T21:36:26;5.43;;;1.87;;
17228;SDS011;8731;50.364;8.958;2022-08-11T21:41:08;3.07;;;1.77;;
17228;SDS011;8731;50.364;8.958;2022-08-11T21:45:49;3.97;;;2.00;;
17228;SDS011;8731;50.364;8.958;2022-08-11T21:50:31;5.47;;;2.00;;
17228;SDS011;8731;50.364;8.958;2022-08-11T21:55:13;8.03;;;2.37;;
17228;SDS011;8731;50.364;8.958;2022-08-11T21:59:54;5.20;;;1.90;;
17228;SDS011;8731;50.364;8.958;2022-08-11T22:04:36;5.23;;;2.17;;
17228;SDS011;8731;50.364;8.958;2022-08-11T22:09:17;5.00;;;2.20;;
17228;SDS011;8731;50.364;8.958;2022-08-11T22:13:58;4.77;;;1.70;;
17228;SDS011;8731;50.364;8.958;2022-08-11T22:18:39;6.30;;;2.07;;
17228;SDS011;8731;50.364;8.958;2022-08-11T22:23:20;2.80;;;1.67;;
17228;SDS011;8731;50.364;8.958;2022-08-11T22:28:01;4.57;;;1.90;;
17228;SDS011;8731;50.364;8.958;2022-08-11T22:32:43;6.93;;;1.77;;
17228;SDS011;8731;50.364;8.958;2022-08-11T22:37:23;2.13;;;1.90;;
17228;SDS011;8731;50.364;8.958;2022-08-11T22:42:06;6.30;;;1.97;;
17228;SDS011;8731;50.364;8.958;2022-08-11T22:46:46;7.90;;;2.47;;
17228;SDS011;8731;50.364;8.958;2022-08-11T22:51:30;2.50;;;1.97;;
17228;SDS011;8731;50.364;8.958;2022-08-11T22:56:12;7.77;;;2.20;;
17228;SDS011;8731;50.364;8.958;2022-08-11T23:00:53;3.27;;;2.20;;
17228;SDS011;8731;50.364;8.958;2022-08-11T23:05:33;3.47;;;1.87;;
17228;SDS011;8731;50.364;8.958;2022-08-11T23:10:17;5.83;;;1.90;;
17228;SDS011;8731;50.364;8.958;2022-08-11T23:14:58;4.30;;;2.20;;
17228;SDS011;8731;50.364;8.958;2022-08-11T23:19:39;5.00;;;2.00;;
17228;SDS011;8731;50.364;8.958;2022-08-11T23:24:21;4.30;;;2.23;;
17228;SDS011;8731;50.364;8.958;2022-08-11T23:29:04;2.30;;;2.07;;
17228;SDS011;8731;50.364;8.958;2022-08-11T23:33:48;4.63;;;1.73;;
17228;SDS011;8731;50.364;8.958;2022-08-11T23:38:33;3.93;;;2.17;;
17228;SDS011;8731;50.364;8.958;2022-08-11T23:43:20;2.23;;;2.03;;
17228;SDS011;8731;50.364;8.958;2022-08-11T23:48:03;5.23;;;2.07;;
17228;SDS011;8731;50.364;8.958;2022-08-11T23:52:44;4.93;;;2.17;;
17228;SDS011;8731;50.364;8.958;2022-08-11T23:57:25;2.83;;;2.00;;
